You are listening to:
KWVI CTAF/NORCAL App - Watsonville, California, United States

KWVI 190053Z AUTO 25003KT 10SM CLR 12/09 A3011 RMK AO2 SLP197 T01170094

If stream doesn't start automatically press the play button
If stream stops then reload player then press play